createdAt,value
2023-03-25T00:00:24.890Z,20.42
2023-03-25T00:02:53.368Z,22.83
2023-03-25T00:05:22.119Z,26.20
2023-03-25T00:07:50.633Z,27.90
2023-03-25T00:10:18.471Z,31.48
2023-03-25T00:12:46.134Z,33.83
2023-03-25T00:15:16.314Z,38.53
2023-03-25T00:17:44.325Z,43.55
2023-03-25T00:20:12.816Z,47.65
2023-03-25T00:22:43.882Z,52.50
2023-03-25T00:25:13.512Z,58.05
2023-03-25T00:27:43.925Z,61.67
2023-03-25T00:30:12.618Z,72.25
2023-03-25T00:32:41.696Z,72.32
2023-03-25T00:35:10.217Z,79.57
2023-03-25T00:37:37.977Z,83.70
2023-03-25T00:40:06.736Z,91.18
2023-03-25T00:42:34.897Z,93.40
2023-03-25T00:45:02.701Z,97.63
2023-03-25T00:47:31.295Z,105.40
2023-03-25T00:50:03.582Z,120.05
2023-03-25T00:52:31.247Z,113.93
2023-03-25T00:54:58.943Z,126.63
2023-03-25T00:57:27.838Z,128.73
2023-03-25T00:59:55.564Z,135.20
2023-03-25T01:02:24.187Z,137.82
2023-03-25T01:04:52.156Z,136.57
2023-03-25T01:07:21.387Z,136.75
2023-03-25T01:09:49.130Z,149.32
2023-03-25T01:12:18.823Z,144.60
2023-03-25T01:14:47.627Z,151.68
2023-03-25T01:17:15.876Z,158.00
2023-03-25T01:19:43.552Z,159.10
2023-03-25T01:22:11.403Z,161.23
2023-03-25T01:24:40.396Z,165.25
2023-03-25T01:27:08.490Z,171.25
2023-03-25T01:29:36.249Z,174.07
2023-03-25T01:32:04.128Z,170.25
2023-03-25T01:34:33.116Z,172.00
2023-03-25T01:37:00.998Z,185.80
2023-03-25T01:39:28.710Z,177.32
2023-03-25T01:41:57.778Z,187.45
2023-03-25T01:45:02.944Z,188.20
2023-03-25T01:47:30.656Z,188.10
2023-03-25T01:49:58.387Z,205.40
2023-03-25T01:52:26.525Z,178.93
2023-03-25T01:54:54.803Z,186.77
2023-03-25T01:57:24.101Z,196.18
2023-03-25T01:59:52.404Z,192.63
2023-03-25T02:02:20.161Z,198.95
2023-03-25T02:04:59.113Z,195.63
2023-03-25T02:07:30.591Z,189.55
2023-03-25T02:09:59.030Z,203.43
2023-03-25T02:12:28.040Z,197.82
2023-03-25T02:14:56.050Z,209.73
2023-03-25T02:17:26.881Z,206.20
2023-03-25T02:20:12.222Z,208.45
2023-03-25T02:23:02.751Z,220.38
2023-03-25T02:25:45.900Z,198.50
2023-03-25T02:28:17.758Z,211.40
2023-03-25T02:31:04.832Z,217.82
2023-03-25T02:33:48.067Z,195.43
2023-03-25T02:36:57.223Z,228.57
2023-03-25T02:39:28.374Z,205.23
2023-03-25T02:41:58.828Z,209.75
2023-03-25T02:44:31.204Z,208.68
2023-03-25T02:47:00.280Z,203.70
2023-03-25T02:49:30.502Z,213.80
2023-03-25T02:52:00.617Z,212.45
2023-03-25T02:54:30.110Z,207.93
2023-03-25T02:56:58.253Z,193.68
2023-03-25T02:59:30.034Z,207.27
2023-03-25T03:01:59.315Z,198.23
2023-03-25T03:04:27.117Z,198.50
2023-03-25T03:06:55.060Z,193.55
2023-03-25T03:09:27.147Z,190.27
2023-03-25T03:12:01.667Z,185.60
2023-03-25T03:14:34.747Z,186.02
2023-03-25T03:17:08.187Z,186.60
2023-03-25T03:19:38.907Z,185.43
2023-03-25T03:22:15.216Z,181.65
2023-03-25T03:24:44.784Z,174.57
2023-03-25T03:27:15.057Z,166.40
2023-03-25T03:29:45.500Z,175.15
2023-03-25T03:32:15.456Z,163.07
2023-03-25T03:34:46.348Z,158.55
2023-03-25T03:37:16.094Z,158.10
2023-03-25T03:39:43.790Z,157.90
2023-03-25T03:42:15.719Z,142.10
2023-03-25T03:44:45.012Z,145.10
2023-03-25T03:47:14.427Z,140.07
2023-03-25T03:49:43.777Z,142.60
2023-03-25T03:52:12.913Z,132.80
2023-03-25T03:54:43.236Z,129.88
2023-03-25T03:57:13.911Z,122.85
2023-03-25T03:59:43.179Z,120.63
2023-03-25T04:02:14.723Z,117.13
2023-03-25T04:04:43.481Z,111.07
2023-03-25T04:07:14.631Z,105.70
2023-03-25T04:09:46.551Z,106.95
2023-03-25T04:12:16.903Z,100.38
2023-03-25T04:14:44.576Z,96.15
2023-03-25T04:17:12.591Z,96.60
2023-03-25T04:19:40.262Z,92.80
2023-03-25T04:22:08.586Z,89.65
2023-03-25T04:24:37.643Z,89.57
2023-03-25T04:27:05.396Z,81.80
2023-03-25T04:29:34.531Z,80.55
2023-03-25T04:32:02.455Z,76.68
2023-03-25T04:34:30.081Z,70.47
2023-03-25T04:36:58.737Z,66.75
2023-03-25T04:39:29.475Z,64.97
2023-03-25T04:41:57.384Z,66.15
2023-03-25T04:44:25.906Z,61.88
2023-03-25T04:46:55.982Z,57.53
2023-03-25T04:49:24.914Z,54.97
2023-03-25T04:51:53.759Z,53.03
2023-03-25T04:54:21.713Z,51.00
2023-03-25T04:56:49.579Z,49.67
2023-03-25T04:59:18.134Z,45.40
2023-03-25T05:01:46.032Z,42.95
2023-03-25T05:04:17.325Z,42.70
2023-03-25T05:06:47.032Z,41.65
2023-03-25T05:09:15.532Z,38.10
2023-03-25T05:11:43.479Z,36.83
2023-03-25T05:14:11.853Z,36.80
2023-03-25T05:16:39.900Z,32.05
2023-03-25T05:19:08.034Z,31.98
2023-03-25T05:21:38.082Z,30.63
2023-03-25T05:24:08.189Z,29.60
2023-03-25T05:26:35.987Z,28.75
2023-03-25T05:29:03.690Z,28.25
2023-03-25T05:31:31.392Z,25.10
2023-03-25T05:33:59.093Z,24.90
2023-03-25T05:36:26.765Z,22.98
2023-03-25T05:38:56.678Z,21.88
2023-03-25T05:41:32.369Z,21.65
2023-03-25T05:44:00.515Z,18.98
2023-03-25T05:46:29.300Z,20.02
2023-03-25T05:48:57.854Z,17.90
2023-03-25T05:51:26.211Z,17.00
2023-03-25T05:53:55.203Z,17.15
2023-03-25T05:56:24.170Z,16.08
2023-03-25T05:58:52.609Z,14.90
2023-03-25T06:01:32.770Z,13.93
2023-03-25T06:04:02.226Z,13.07
2023-03-25T06:06:30.686Z,11.85
2023-03-25T06:08:59.684Z,11.63
2023-03-25T06:11:27.380Z,11.07
2023-03-25T06:13:55.105Z,10.43
2023-03-25T06:16:27.848Z,9.95
2023-03-25T06:18:59.324Z,9.55
2023-03-25T06:21:27.522Z,8.93
2023-03-25T06:23:55.374Z,8.23
2023-03-25T06:26:24.613Z,7.75
2023-03-25T06:28:52.339Z,7.53
2023-03-25T06:31:22.484Z,6.97
2023-03-25T06:33:50.677Z,6.65
2023-03-25T06:36:20.141Z,6.32
2023-03-25T06:38:49.138Z,5.90
2023-03-25T06:41:20.090Z,6.07
2023-03-25T06:43:54.196Z,5.72
2023-03-25T06:46:47.765Z,4.85
2023-03-25T06:49:30.661Z,4.90
2023-03-25T06:52:00.222Z,4.63
2023-03-25T06:54:27.900Z,4.30
2023-03-25T06:56:55.609Z,4.20
2023-03-25T06:59:24.602Z,3.75
2023-03-25T07:01:52.298Z,3.40
2023-03-25T07:04:20.064Z,3.35
2023-03-25T07:06:47.716Z,3.35
2023-03-25T07:09:15.446Z,3.15
2023-03-25T07:11:43.118Z,2.97
2023-03-25T07:14:10.931Z,2.70
2023-03-25T07:16:39.919Z,2.58
2023-03-25T07:19:07.635Z,2.70
2023-03-25T07:21:35.439Z,2.60
2023-03-25T07:24:03.117Z,2.50
2023-03-25T07:26:30.776Z,2.25
2023-03-25T07:28:58.468Z,2.40
2023-03-25T07:31:26.346Z,2.08
2023-03-25T07:33:55.475Z,2.30
2023-03-25T07:36:25.144Z,1.90
2023-03-25T07:38:54.813Z,2.03
2023-03-25T07:41:24.190Z,1.90
2023-03-25T07:44:07.061Z,1.90
2023-03-25T07:46:37.330Z,1.77
2023-03-25T07:49:06.356Z,1.60
2023-03-25T07:51:35.039Z,1.70
2023-03-25T07:54:05.322Z,1.58
2023-03-25T07:56:34.068Z,1.60
2023-03-25T07:59:01.739Z,1.40
2023-03-25T08:01:29.413Z,1.80
2023-03-25T08:03:57.126Z,1.67
2023-03-25T08:06:26.682Z,1.35
2023-03-25T08:08:55.616Z,1.90
2023-03-25T08:11:23.308Z,1.45
2023-03-25T08:13:51.096Z,1.35
2023-03-25T08:16:18.791Z,1.20
2023-03-25T08:18:46.506Z,1.67
2023-03-25T08:21:14.204Z,1.40
2023-03-25T08:23:44.490Z,1.40
2023-03-25T08:26:12.213Z,1.30
2023-03-25T08:28:39.887Z,1.05
2023-03-25T08:31:08.786Z,1.00
2023-03-25T08:33:39.578Z,1.52
2023-03-25T08:36:09.979Z,1.38
2023-03-25T08:38:37.727Z,1.10
2023-03-25T08:41:06.845Z,4.07
2023-03-25T08:43:34.530Z,2.95
2023-03-25T08:46:02.243Z,4.70
2023-03-25T08:48:29.917Z,3.55
2023-03-25T08:50:57.655Z,4.53
2023-03-25T08:53:25.910Z,4.90
2023-03-25T08:55:53.836Z,7.53
2023-03-25T08:58:23.042Z,8.05
2023-03-25T09:00:53.476Z,6.47
2023-03-25T09:03:21.262Z,7.55
2023-03-25T09:05:49.427Z,38.40
2023-03-25T09:08:17.256Z,8.40
2023-03-25T09:10:44.961Z,5.68
2023-03-25T09:13:12.699Z,11.43
2023-03-25T09:15:41.789Z,11.43
2023-03-25T09:18:10.140Z,4.65
2023-03-25T09:20:37.870Z,7.00
2023-03-25T09:23:05.577Z,6.15
2023-03-25T09:25:34.252Z,7.85
2023-03-25T09:28:02.009Z,13.82
2023-03-25T09:30:29.723Z,6.93
2023-03-25T09:32:58.782Z,6.82
2023-03-25T09:35:26.548Z,4.50
2023-03-25T09:37:54.313Z,10.93
2023-03-25T09:40:22.365Z,11.40
2023-03-25T09:43:09.202Z,13.35
2023-03-25T09:45:37.647Z,9.93
2023-03-25T09:48:14.161Z,7.32
2023-03-25T09:50:41.818Z,8.50
2023-03-25T09:53:24.214Z,16.15
2023-03-25T09:55:52.058Z,5.47
2023-03-25T09:58:31.456Z,7.63
2023-03-25T10:01:01.878Z,8.80
2023-03-25T10:03:32.724Z,7.57
2023-03-25T10:06:10.318Z,5.35
2023-03-25T10:08:44.821Z,7.10
2023-03-25T10:11:15.377Z,6.50
2023-03-25T10:13:48.749Z,7.78
2023-03-25T10:16:22.372Z,5.95
2023-03-25T10:18:57.101Z,8.32
2023-03-25T10:21:26.289Z,6.47
2023-03-25T10:23:58.452Z,5.38
2023-03-25T10:26:28.183Z,4.05
2023-03-25T10:29:01.192Z,3.85
2023-03-25T10:31:31.944Z,7.93
2023-03-25T10:34:02.492Z,5.13
2023-03-25T10:36:32.758Z,5.28
2023-03-25T10:39:01.901Z,7.72
2023-03-25T10:41:31.253Z,18.15
2023-03-25T10:43:58.890Z,10.88
2023-03-25T10:46:29.391Z,12.18
2023-03-25T10:48:57.192Z,9.52
2023-03-25T10:51:28.157Z,9.25
2023-03-25T10:53:56.097Z,11.45
2023-03-25T10:56:25.356Z,9.95
2023-03-25T10:58:54.206Z,12.10
2023-03-25T11:01:22.853Z,8.82
2023-03-25T11:03:51.853Z,7.47
2023-03-25T11:06:24.167Z,9.77
2023-03-25T11:09:12.165Z,14.70
2023-03-25T11:11:39.826Z,5.57
2023-03-25T11:14:07.478Z,9.23
2023-03-25T11:16:36.565Z,5.68
2023-03-25T11:19:04.686Z,8.05
2023-03-25T11:21:33.022Z,5.97
2023-03-25T11:24:02.687Z,7.80
2023-03-25T11:26:33.714Z,5.55
2023-03-25T11:29:02.523Z,9.23
2023-03-25T11:31:30.455Z,2.85
2023-03-25T11:34:05.515Z,3.90
2023-03-25T11:36:34.222Z,5.80
2023-03-25T11:39:05.015Z,7.35
2023-03-25T11:41:33.599Z,4.85
2023-03-25T11:44:01.425Z,11.18
2023-03-25T11:46:29.213Z,9.02
2023-03-25T11:48:56.886Z,11.60
2023-03-25T11:51:25.915Z,5.10
2023-03-25T11:53:56.777Z,9.57
2023-03-25T11:56:28.753Z,13.32
2023-03-25T11:58:58.584Z,9.52
2023-03-25T12:01:27.890Z,18.65
2023-03-25T12:04:07.401Z,11.43
2023-03-25T12:06:35.211Z,11.23
2023-03-25T12:09:04.993Z,10.10
2023-03-25T12:11:37.455Z,4.90
2023-03-25T12:14:18.927Z,11.55
2023-03-25T12:16:49.560Z,8.93
2023-03-25T12:19:20.559Z,9.80
2023-03-25T12:22:02.143Z,7.30
2023-03-25T12:24:37.804Z,13.10
2023-03-25T12:27:15.654Z,17.98
2023-03-25T12:29:46.835Z,9.88
2023-03-25T12:32:22.965Z,10.18
2023-03-25T12:34:58.606Z,5.55
2023-03-25T12:37:31.494Z,19.55
2023-03-25T12:40:24.711Z,17.23
2023-03-25T12:42:58.239Z,10.68
2023-03-25T12:45:33.165Z,7.22
2023-03-25T12:48:02.219Z,8.43
2023-03-25T12:50:42.812Z,6.15
2023-03-25T12:53:23.235Z,7.93
2023-03-25T12:55:56.557Z,10.48
2023-03-25T12:58:34.078Z,11.98
2023-03-25T13:01:04.434Z,8.40
2023-03-25T13:03:56.450Z,10.23
2023-03-25T13:06:27.395Z,10.57
2023-03-25T13:08:57.172Z,9.38
2023-03-25T13:11:27.146Z,6.75
2023-03-25T13:13:57.924Z,4.18
2023-03-25T13:16:27.604Z,10.07
2023-03-25T13:18:56.622Z,8.85
2023-03-25T13:21:25.804Z,8.63
2023-03-25T13:23:55.884Z,6.68
2023-03-25T13:26:25.120Z,7.75
2023-03-25T13:28:58.055Z,17.90
2023-03-25T13:31:28.175Z,13.18
2023-03-25T13:33:58.772Z,9.32
2023-03-25T13:36:27.820Z,5.80
2023-03-25T13:38:57.255Z,5.97
2023-03-25T13:41:26.826Z,9.25
2023-03-25T13:44:01.533Z,7.00
2023-03-25T13:46:32.717Z,12.98
2023-03-25T13:49:02.324Z,25.15
2023-03-25T13:51:30.413Z,8.65
2023-03-25T13:53:58.988Z,9.43
2023-03-25T13:56:58.232Z,9.45
2023-03-25T13:59:52.803Z,12.10
2023-03-25T14:02:32.666Z,9.20
2023-03-25T14:05:21.994Z,17.92
2023-03-25T14:07:57.035Z,17.02
2023-03-25T14:10:30.621Z,12.25
2023-03-25T14:12:59.089Z,10.13
2023-03-25T14:15:30.038Z,25.38
2023-03-25T14:17:57.760Z,6.63
2023-03-25T14:20:27.639Z,8.75
2023-03-25T14:22:59.214Z,11.93
2023-03-25T14:25:34.574Z,8.18
2023-03-25T14:28:03.512Z,6.25
2023-03-25T14:30:32.494Z,9.07
2023-03-25T14:33:02.790Z,6.18
2023-03-25T14:35:49.205Z,6.57
2023-03-25T14:38:21.937Z,7.10
2023-03-25T14:41:02.782Z,12.27
2023-03-25T14:43:34.064Z,14.80
2023-03-25T14:46:06.422Z,11.50
2023-03-25T14:48:37.390Z,6.90
2023-03-25T14:51:15.800Z,11.13
2023-03-25T14:53:43.534Z,19.98
2023-03-25T14:56:16.673Z,11.35
2023-03-25T14:58:44.848Z,12.23
2023-03-25T15:01:17.536Z,9.95
2023-03-25T15:03:45.570Z,25.50
2023-03-25T15:06:18.855Z,14.52
2023-03-25T15:08:52.857Z,11.65
2023-03-25T15:11:27.122Z,12.32
2023-03-25T15:13:56.738Z,15.82
2023-03-25T15:16:32.556Z,29.83
2023-03-25T15:19:09.967Z,11.77
2023-03-25T15:22:10.848Z,15.90
2023-03-25T15:24:38.709Z,17.35
2023-03-25T15:27:09.432Z,33.95
2023-03-25T15:29:47.669Z,20.92
2023-03-25T15:32:44.508Z,18.80
2023-03-25T15:35:36.520Z,15.07
2023-03-25T15:38:17.522Z,17.98
2023-03-25T15:40:55.367Z,16.65
2023-03-25T15:43:40.733Z,24.70
2023-03-25T15:46:38.288Z,32.38
2023-03-25T15:49:17.059Z,17.35
2023-03-25T15:51:50.416Z,19.83
2023-03-25T15:54:29.124Z,11.77
2023-03-25T15:56:59.479Z,11.43
2023-03-25T15:59:31.656Z,19.85
2023-03-25T16:01:59.332Z,23.85
2023-03-25T16:04:32.942Z,19.85
2023-03-25T16:07:00.689Z,23.58
2023-03-25T16:09:29.276Z,39.08
2023-03-25T16:11:59.674Z,25.17
2023-03-25T16:14:29.821Z,20.77
2023-03-25T16:16:58.286Z,24.02
2023-03-25T16:19:29.761Z,16.73
2023-03-25T16:21:57.441Z,19.65
2023-03-25T16:24:26.433Z,2.30
2023-03-25T16:26:54.098Z,9.65
2023-03-25T16:29:22.718Z,6.13
2023-03-25T16:31:58.355Z,7.78
2023-03-25T16:34:26.147Z,19.02
2023-03-25T16:36:55.499Z,8.77
2023-03-25T16:39:24.354Z,36.83
2023-03-25T16:41:52.793Z,17.25
2023-03-25T16:44:22.955Z,16.73
2023-03-25T16:46:51.584Z,14.90
2023-03-25T16:49:22.896Z,17.20
2023-03-25T16:51:50.578Z,18.95
2023-03-25T16:54:27.581Z,25.83
2023-03-25T16:56:55.847Z,29.52
2023-03-25T16:59:25.868Z,18.08
2023-03-25T17:01:54.694Z,15.50
2023-03-25T17:04:25.973Z,25.67
2023-03-25T17:06:55.590Z,26.92
2023-03-25T17:09:25.980Z,19.05
2023-03-25T17:11:54.335Z,20.30
2023-03-25T17:14:22.966Z,33.33
2023-03-25T17:16:51.283Z,14.98
2023-03-25T17:19:19.043Z,27.42
2023-03-25T17:22:02.054Z,28.60
2023-03-25T17:24:37.523Z,19.80
2023-03-25T17:27:06.649Z,26.60
2023-03-25T17:29:34.438Z,17.50
2023-03-25T17:32:02.083Z,19.40
2023-03-25T17:34:30.329Z,111.07
2023-03-25T17:36:58.872Z,25.33
2023-03-25T17:39:27.654Z,38.72
2023-03-25T17:41:58.740Z,25.17
2023-03-25T17:44:26.602Z,24.55
2023-03-25T17:46:54.279Z,25.92
2023-03-25T17:49:21.968Z,24.08
2023-03-25T17:51:49.631Z,21.20
2023-03-25T17:54:17.299Z,15.88
2023-03-25T17:56:46.658Z,19.48
2023-03-25T17:59:17.652Z,19.25
2023-03-25T18:01:46.154Z,18.38
2023-03-25T18:04:15.322Z,19.42
2023-03-25T18:06:43.564Z,13.73
2023-03-25T18:09:14.521Z,16.77
2023-03-25T18:11:42.214Z,16.75
2023-03-25T18:14:09.927Z,14.30
2023-03-25T18:16:39.010Z,15.50
2023-03-25T18:19:10.468Z,16.08
2023-03-25T18:21:38.202Z,11.63
2023-03-25T18:24:06.166Z,10.60
2023-03-25T18:26:34.259Z,17.27
2023-03-25T18:29:04.832Z,12.00
2023-03-25T18:31:32.521Z,9.32
2023-03-25T18:34:01.701Z,12.95
2023-03-25T18:36:29.384Z,18.30
2023-03-25T18:38:57.074Z,10.93
2023-03-25T18:41:24.745Z,11.38
2023-03-25T18:43:52.478Z,11.77
2023-03-25T18:46:21.324Z,7.95
2023-03-25T18:48:49.031Z,12.75
2023-03-25T18:51:18.026Z,6.78
2023-03-25T18:53:47.199Z,7.30
2023-03-25T18:56:14.877Z,10.40
2023-03-25T18:58:42.560Z,10.38
2023-03-25T19:01:13.541Z,5.85
2023-03-25T19:03:41.304Z,5.82
2023-03-25T19:06:10.345Z,7.35
2023-03-25T19:08:39.526Z,9.93
2023-03-25T19:11:19.134Z,8.00
2023-03-25T19:13:49.014Z,9.80
2023-03-25T19:16:16.958Z,5.20
2023-03-25T19:18:44.713Z,6.25
2023-03-25T19:21:15.523Z,6.43
2023-03-25T19:23:44.610Z,6.30
2023-03-25T19:26:12.563Z,7.43
2023-03-25T19:28:40.902Z,8.82
2023-03-25T19:31:08.651Z,9.65
2023-03-25T19:33:36.343Z,8.18
2023-03-25T19:36:04.533Z,7.85
2023-03-25T19:38:32.807Z,7.07
2023-03-25T19:41:06.687Z,6.18
2023-03-25T19:43:34.448Z,6.82
2023-03-25T19:46:02.204Z,6.45
2023-03-25T19:48:30.543Z,6.38
2023-03-25T19:50:58.464Z,4.65
2023-03-25T19:53:26.401Z,4.20
2023-03-25T19:55:54.398Z,6.80
2023-03-25T19:58:24.511Z,4.65
2023-03-25T20:00:52.852Z,4.30
2023-03-25T20:03:22.701Z,5.28
2023-03-25T20:05:50.873Z,6.63
2023-03-25T20:08:18.620Z,5.93
2023-03-25T20:10:46.431Z,5.70
2023-03-25T20:13:14.090Z,4.28
2023-03-25T20:15:43.104Z,3.78
2023-03-25T20:18:10.921Z,4.88
2023-03-25T20:20:40.284Z,5.68
2023-03-25T20:23:07.982Z,4.63
2023-03-25T20:25:35.745Z,4.70
2023-03-25T20:28:03.431Z,3.03
2023-03-25T20:30:33.872Z,5.35
2023-03-25T20:33:02.924Z,3.70
2023-03-25T20:35:31.652Z,8.50
2023-03-25T20:37:59.429Z,4.15
2023-03-25T20:40:37.394Z,3.35
2023-03-25T20:43:09.529Z,4.20
2023-03-25T20:45:37.184Z,4.70
2023-03-25T20:48:08.606Z,5.32
2023-03-25T20:50:36.431Z,4.78
2023-03-25T20:53:04.117Z,2.50
2023-03-25T20:55:32.140Z,4.88
2023-03-25T20:58:00.751Z,5.10
2023-03-25T21:00:28.622Z,6.78
2023-03-25T21:02:57.396Z,3.83
2023-03-25T21:05:28.121Z,4.00
2023-03-25T21:07:55.868Z,4.40
2023-03-25T21:10:23.561Z,2.33
2023-03-25T21:12:51.267Z,3.53
2023-03-25T21:15:19.101Z,3.83
2023-03-25T21:17:47.012Z,4.97
2023-03-25T21:20:14.767Z,4.18
2023-03-25T21:22:44.343Z,4.43
2023-03-25T21:25:13.005Z,3.88
2023-03-25T21:27:42.119Z,4.68
2023-03-25T21:30:10.699Z,3.28
2023-03-25T21:32:38.522Z,2.97
2023-03-25T21:35:07.825Z,2.80
2023-03-25T21:37:37.838Z,2.58
2023-03-25T21:40:10.015Z,4.32
2023-03-25T21:42:38.618Z,4.05
2023-03-25T21:45:08.097Z,3.25
2023-03-25T21:47:36.558Z,3.33
2023-03-25T21:50:05.989Z,2.53
2023-03-25T21:52:33.732Z,4.45
2023-03-25T21:55:01.403Z,4.50
2023-03-25T21:57:31.299Z,2.88
2023-03-25T21:59:59.003Z,3.47
2023-03-25T22:02:28.699Z,2.65
2023-03-25T22:04:56.385Z,3.85
2023-03-25T22:07:24.038Z,4.78
2023-03-25T22:09:51.926Z,4.00
2023-03-25T22:12:19.587Z,2.88
2023-03-25T22:14:48.576Z,6.18
2023-03-25T22:17:16.338Z,3.42
2023-03-25T22:19:44.057Z,4.75
2023-03-25T22:22:18.701Z,2.78
2023-03-25T22:24:46.408Z,3.47
2023-03-25T22:27:14.167Z,3.03
2023-03-25T22:29:42.626Z,3.03
2023-03-25T22:32:11.722Z,3.08
2023-03-25T22:34:39.602Z,3.00
2023-03-25T22:37:07.316Z,2.83
2023-03-25T22:39:34.989Z,2.83
2023-03-25T22:42:02.701Z,2.58
2023-03-25T22:44:30.789Z,5.65
2023-03-25T22:46:58.505Z,2.88
2023-03-25T22:49:27.808Z,2.72
2023-03-25T22:51:55.536Z,3.10
2023-03-25T22:54:23.479Z,3.10
2023-03-25T22:56:51.281Z,2.30
2023-03-25T22:59:19.121Z,3.40
2023-03-25T23:01:46.882Z,2.65
2023-03-25T23:04:14.638Z,2.15
2023-03-25T23:06:48.943Z,3.53
2023-03-25T23:09:40.981Z,3.72
2023-03-25T23:12:10.786Z,2.05
2023-03-25T23:14:39.344Z,2.10
2023-03-25T23:17:07.004Z,2.72
2023-03-25T23:19:34.723Z,3.25
2023-03-25T23:22:04.772Z,2.90
2023-03-25T23:24:35.805Z,2.53
2023-03-25T23:27:03.650Z,2.53
2023-03-25T23:29:32.766Z,4.68
2023-03-25T23:32:00.418Z,3.67
2023-03-25T23:34:28.134Z,2.92
2023-03-25T23:36:56.608Z,3.03
2023-03-25T23:39:27.731Z,3.70
2023-03-25T23:41:55.676Z,3.80
2023-03-25T23:44:23.445Z,4.05
2023-03-25T23:46:51.636Z,4.30
2023-03-25T23:49:20.060Z,5.20
2023-03-25T23:51:48.021Z,5.82
2023-03-25T23:54:16.397Z,6.72
2023-03-25T23:56:45.552Z,7.60
2023-03-25T23:59:13.273Z,7.85
